Time;durP1;ratioP1;P1;durP2;ratioP2;P2;SDS_P1;SDS_P2;PMS_P1;PMS_P2;Temp;Humidity;BMP_temperature;BMP_pressure;BME280_temperature;BME280_humidity;BME280_pressure;Samples;Min_cycle;Max_cycle;Signal;HPM_P1;HPM_P2
2022/04/19 00:00:27;;;;;;;6.78;4.00;;;;;;;;;;5021364;28;20076;-60
2022/04/19 00:02:53;;;;;;;6.53;3.70;;;;;;;;;;5026221;28;20037;-59
2022/04/19 00:05:19;;;;;;;7.25;4.15;;;;;;;;;;5022428;28;20033;-59
2022/04/19 00:07:45;;;;;;;5.72;4.00;;;;;;;;;;5021460;28;20033;-58
2022/04/19 00:10:12;;;;;;;5.35;3.70;;;;;;;;;;5019684;28;20024;-62
2022/04/19 00:12:38;;;;;;;7.47;3.72;;;;;;;;;;5022835;28;20377;-62
2022/04/19 00:15:05;;;;;;;6.55;3.80;;;;;;;;;;5023796;28;20029;-59
2022/04/19 00:17:32;;;;;;;6.95;4.20;;;;;;;;;;5026865;28;20055;-62
2022/04/19 00:19:58;;;;;;;5.80;4.20;;;;;;;;;;5016870;28;20072;-61
2022/04/19 00:22:23;;;;;;;8.93;4.85;;;;;;;;;;5025517;28;20496;-60
2022/04/19 00:24:49;;;;;;;5.93;4.25;;;;;;;;;;5025076;28;20025;-60
2022/04/19 00:27:16;;;;;;;6.05;4.03;;;;;;;;;;5029665;28;20033;-60
2022/04/19 00:29:42;;;;;;;6.40;4.40;;;;;;;;;;5025406;28;20032;-60
2022/04/19 00:32:11;;;;;;;7.72;4.72;;;;;;;;;;5024955;28;20112;-61
2022/04/19 00:34:38;;;;;;;7.50;4.63;;;;;;;;;;5027348;28;20404;-59
2022/04/19 00:37:05;;;;;;;7.90;4.78;;;;;;;;;;5023216;28;20462;-59
2022/04/19 00:39:31;;;;;;;9.18;5.63;;;;;;;;;;5038588;28;20537;-60
2022/04/19 00:41:56;;;;;;;7.55;5.43;;;;;;;;;;5029644;28;20220;-62
2022/04/19 00:44:23;;;;;;;9.18;5.13;;;;;;;;;;5023566;28;20041;-61
2022/04/19 00:46:49;;;;;;;8.10;5.53;;;;;;;;;;5029844;28;20107;-60
2022/04/19 00:49:17;;;;;;;8.50;5.75;;;;;;;;;;5022669;28;20480;-60
2022/04/19 00:51:43;;;;;;;7.60;5.07;;;;;;;;;;5028388;28;20243;-61
2022/04/19 00:54:10;;;;;;;7.40;5.85;;;;;;;;;;5024849;28;20053;-59
2022/04/19 00:56:36;;;;;;;13.45;5.55;;;;;;;;;;5026036;28;20035;-62
2022/04/19 00:59:02;;;;;;;7.57;5.25;;;;;;;;;;5024748;28;20465;-60
2022/04/19 01:01:28;;;;;;;8.45;6.05;;;;;;;;;;5022261;28;20175;-62
2022/04/19 01:03:54;;;;;;;9.23;5.78;;;;;;;;;;5031186;28;20116;-62
2022/04/19 01:06:20;;;;;;;9.10;5.50;;;;;;;;;;5024312;28;20029;-62
2022/04/19 01:08:46;;;;;;;7.55;5.57;;;;;;;;;;5024484;28;20033;-60
2022/04/19 01:13:57;;;;;;;9.02;6.45;;;;;;;;;;5024339;28;20109;-62
2022/04/19 01:16:23;;;;;;;11.05;6.00;;;;;;;;;;5026305;28;20037;-58
2022/04/19 01:18:49;;;;;;;9.98;6.28;;;;;;;;;;5027625;28;20037;-60
2022/04/19 01:21:15;;;;;;;9.40;6.32;;;;;;;;;;5023248;28;20073;-60
2022/04/19 01:23:41;;;;;;;10.23;6.53;;;;;;;;;;5028759;28;20028;-62
2022/04/19 01:26:07;;;;;;;11.30;6.80;;;;;;;;;;5021909;28;20026;-60
2022/04/19 01:28:33;;;;;;;10.02;6.85;;;;;;;;;;5029284;28;20244;-60
2022/04/19 01:30:59;;;;;;;12.23;6.93;;;;;;;;;;5023370;28;20118;-62
2022/04/19 01:33:25;;;;;;;14.38;7.07;;;;;;;;;;5026403;28;20029;-60
2022/04/19 01:35:51;;;;;;;13.68;6.88;;;;;;;;;;5024087;28;20080;-59
2022/04/19 01:38:17;;;;;;;9.27;6.70;;;;;;;;;;5028246;28;20056;-60
2022/04/19 01:40:43;;;;;;;12.30;7.60;;;;;;;;;;5023593;28;20025;-61
2022/04/19 01:43:09;;;;;;;11.73;7.20;;;;;;;;;;5025307;28;20499;-60
2022/04/19 01:45:35;;;;;;;10.60;7.28;;;;;;;;;;5022790;28;20076;-59
2022/04/19 01:48:01;;;;;;;11.75;7.25;;;;;;;;;;5023597;28;20086;-62
2022/04/19 01:50:28;;;;;;;13.10;7.57;;;;;;;;;;5023774;28;20546;-60
2022/04/19 01:53:00;;;;;;;11.55;7.85;;;;;;;;;;5024827;28;20017;-62
2022/04/19 01:55:26;;;;;;;11.40;7.50;;;;;;;;;;5027771;28;20025;-61
2022/04/19 01:57:59;;;;;;;11.27;7.05;;;;;;;;;;5023374;28;20470;-62
2022/04/19 02:00:25;;;;;;;10.95;6.95;;;;;;;;;;5022282;28;20025;-58
2022/04/19 02:02:55;;;;;;;12.13;7.53;;;;;;;;;;5023711;28;20032;-60
2022/04/19 02:05:21;;;;;;;13.02;6.97;;;;;;;;;;5022624;28;20504;-61
2022/04/19 02:07:47;;;;;;;12.18;7.70;;;;;;;;;;5024348;28;20070;-60
2022/04/19 02:10:14;;;;;;;10.45;7.03;;;;;;;;;;5021342;28;20029;-59
2022/04/19 02:12:40;;;;;;;14.20;8.88;;;;;;;;;;5024620;28;20310;-59
2022/04/19 02:15:07;;;;;;;11.82;7.85;;;;;;;;;;5024641;28;20034;-61
2022/04/19 02:17:33;;;;;;;9.88;7.68;;;;;;;;;;5022658;28;20547;-61
2022/04/19 02:19:59;;;;;;;10.93;7.75;;;;;;;;;;5016605;28;20026;-59
2022/04/19 02:22:26;;;;;;;11.32;8.25;;;;;;;;;;5023723;28;20592;-60
2022/04/19 02:24:52;;;;;;;11.07;7.53;;;;;;;;;;5023423;28;20548;-62
2022/04/19 02:27:18;;;;;;;11.15;7.95;;;;;;;;;;5027853;28;20037;-62
2022/04/19 02:29:44;;;;;;;15.38;8.30;;;;;;;;;;5022833;28;20025;-61
2022/04/19 02:32:12;;;;;;;11.70;7.50;;;;;;;;;;5022916;28;20053;-60
2022/04/19 02:34:38;;;;;;;12.60;7.40;;;;;;;;;;5026433;28;20380;-61
2022/04/19 02:37:04;;;;;;;12.43;7.60;;;;;;;;;;5027665;28;20225;-60
2022/04/19 02:39:30;;;;;;;17.73;8.35;;;;;;;;;;5021490;28;20040;-60
2022/04/19 02:41:56;;;;;;;11.18;7.85;;;;;;;;;;5020690;28;20045;-60
2022/04/19 02:44:22;;;;;;;12.18;7.80;;;;;;;;;;5024808;28;20040;-61
2022/04/19 02:46:49;;;;;;;12.95;8.55;;;;;;;;;;5022302;28;20025;-62
2022/04/19 02:49:15;;;;;;;13.30;8.10;;;;;;;;;;5015427;28;20041;-62
2022/04/19 02:51:41;;;;;;;11.50;7.95;;;;;;;;;;5015779;28;20029;-61
2022/04/19 02:54:08;;;;;;;11.18;7.82;;;;;;;;;;5022604;28;20124;-58
2022/04/19 02:56:34;;;;;;;15.65;8.25;;;;;;;;;;5010068;28;20021;-59
2022/04/19 02:59:00;;;;;;;11.80;8.10;;;;;;;;;;5019222;28;20091;-62
2022/04/19 03:01:26;;;;;;;11.25;8.18;;;;;;;;;;5020391;28;20429;-62
2022/04/19 03:03:52;;;;;;;11.30;8.15;;;;;;;;;;5022851;28;20029;-59
2022/04/19 03:06:18;;;;;;;13.02;8.65;;;;;;;;;;5022546;28;20029;-60
2022/04/19 03:08:44;;;;;;;11.68;8.23;;;;;;;;;;5023708;28;20021;-62
2022/04/19 03:11:12;;;;;;;13.10;8.63;;;;;;;;;;5018334;28;20033;-62
2022/04/19 03:13:38;;;;;;;12.45;8.00;;;;;;;;;;5022226;28;20716;-62
2022/04/19 03:16:04;;;;;;;13.43;8.60;;;;;;;;;;5025645;28;20137;-62
2022/04/19 03:18:30;;;;;;;12.57;8.77;;;;;;;;;;5023377;28;20552;-59
2022/04/19 03:20:57;;;;;;;12.27;8.30;;;;;;;;;;5024646;28;20030;-60
2022/04/19 03:28:53;;;;;;;14.18;8.77;;;;;;;;;;5025811;28;20032;-62
2022/04/19 03:31:22;;;;;;;14.63;8.40;;;;;;;;;;5021954;28;20033;-59
2022/04/19 03:33:52;;;;;;;14.48;8.75;;;;;;;;;;5026105;28;20063;-63
2022/04/19 03:36:18;;;;;;;13.82;9.50;;;;;;;;;;5023157;28;20018;-59
2022/04/19 03:38:44;;;;;;;12.18;8.95;;;;;;;;;;5020465;28;20036;-59
2022/04/19 03:41:09;;;;;;;14.13;8.95;;;;;;;;;;5028048;28;20025;-61
2022/04/19 03:43:37;;;;;;;12.63;9.05;;;;;;;;;;5021731;28;20104;-61
2022/04/19 03:46:03;;;;;;;11.65;8.63;;;;;;;;;;5021076;28;20416;-59
2022/04/19 03:48:29;;;;;;;11.32;8.63;;;;;;;;;;5021939;28;20036;-59
2022/04/19 03:50:55;;;;;;;13.75;9.10;;;;;;;;;;5025810;28;20060;-62
2022/04/19 03:53:21;;;;;;;14.52;9.57;;;;;;;;;;5021635;28;20512;-62
2022/04/19 03:55:47;;;;;;;13.30;9.10;;;;;;;;;;5024272;28;20053;-61
2022/04/19 03:58:13;;;;;;;14.38;8.77;;;;;;;;;;5025378;28;20060;-60
2022/04/19 04:00:39;;;;;;;13.85;9.25;;;;;;;;;;5025354;28;20083;-62
2022/04/19 04:03:06;;;;;;;12.30;8.35;;;;;;;;;;5027176;28;20032;-60
2022/04/19 04:05:32;;;;;;;12.35;8.73;;;;;;;;;;5024422;28;20049;-62
2022/04/19 04:07:59;;;;;;;15.50;9.60;;;;;;;;;;5027045;28;20202;-62
2022/04/19 04:10:25;;;;;;;16.08;10.13;;;;;;;;;;5022202;28;20101;-61
2022/04/19 04:12:51;;;;;;;13.90;10.20;;;;;;;;;;5025563;28;20065;-61
2022/04/19 04:15:17;;;;;;;14.52;9.85;;;;;;;;;;5027719;28;20052;-61
2022/04/19 04:17:43;;;;;;;13.30;9.13;;;;;;;;;;5022047;28;20028;-62
2022/04/19 04:20:10;;;;;;;13.02;9.70;;;;;;;;;;5025406;28;20096;-60
2022/04/19 04:22:36;;;;;;;13.75;9.93;;;;;;;;;;5027311;28;20045;-61
2022/04/19 04:25:02;;;;;;;13.57;10.27;;;;;;;;;;5025219;28;20041;-59
2022/04/19 04:27:29;;;;;;;13.65;9.77;;;;;;;;;;5031898;28;20420;-61
2022/04/19 04:29:55;;;;;;;16.17;10.25;;;;;;;;;;5024653;28;20037;-59
2022/04/19 04:32:21;;;;;;;13.73;9.98;;;;;;;;;;5024899;28;20033;-59
2022/04/19 04:34:47;;;;;;;18.63;11.75;;;;;;;;;;5027796;28;20071;-60
2022/04/19 04:37:12;;;;;;;18.23;10.95;;;;;;;;;;5030526;28;20017;-61
2022/04/19 04:39:38;;;;;;;14.55;9.95;;;;;;;;;;5024159;28;20523;-59
2022/04/19 04:42:05;;;;;;;19.27;11.70;;;;;;;;;;5031277;28;20037;-59
2022/04/19 04:44:31;;;;;;;14.02;10.30;;;;;;;;;;5020747;28;20033;-60
2022/04/19 04:49:41;;;;;;;15.88;11.07;;;;;;;;;;5026106;28;20535;-62
2022/04/19 04:52:07;;;;;;;18.40;11.15;;;;;;;;;;5022080;28;20057;-62
2022/04/19 04:54:34;;;;;;;17.98;11.35;;;;;;;;;;5024251;28;20101;-58
2022/04/19 04:57:00;;;;;;;18.77;10.73;;;;;;;;;;5020796;28;20032;-62
2022/04/19 04:59:26;;;;;;;14.57;10.57;;;;;;;;;;5024579;28;20032;-59
2022/04/19 05:01:52;;;;;;;16.60;11.57;;;;;;;;;;5027929;28;20057;-61
2022/04/19 05:04:19;;;;;;;16.08;11.23;;;;;;;;;;5025762;28;20095;-62
2022/04/19 05:06:44;;;;;;;15.57;10.95;;;;;;;;;;5025629;28;20441;-62
2022/04/19 05:09:10;;;;;;;17.40;12.02;;;;;;;;;;5024668;28;20068;-62
2022/04/19 05:11:37;;;;;;;16.83;11.50;;;;;;;;;;5021114;28;20115;-61
2022/04/19 05:14:03;;;;;;;19.90;12.38;;;;;;;;;;5023166;28;20022;-60
2022/04/19 05:16:29;;;;;;;17.85;12.50;;;;;;;;;;5021619;28;20087;-60
2022/04/19 05:18:55;;;;;;;19.42;12.75;;;;;;;;;;5028037;28;20109;-58
2022/04/19 05:21:21;;;;;;;20.30;12.63;;;;;;;;;;5016331;28;20393;-60
2022/04/19 05:23:47;;;;;;;17.95;12.20;;;;;;;;;;5028499;28;20025;-60
2022/04/19 05:26:13;;;;;;;19.70;13.25;;;;;;;;;;5020372;28;20086;-59
2022/04/19 05:28:39;;;;;;;18.95;12.85;;;;;;;;;;5024104;28;20036;-61
2022/04/19 05:31:05;;;;;;;19.50;12.93;;;;;;;;;;5023516;28;20033;-60
2022/04/19 05:33:31;;;;;;;21.98;12.57;;;;;;;;;;5028975;28;20028;-59
2022/04/19 05:35:57;;;;;;;17.65;12.43;;;;;;;;;;5025623;28;20029;-57
2022/04/19 05:38:23;;;;;;;19.77;12.25;;;;;;;;;;5024082;28;20076;-57
2022/04/19 05:40:49;;;;;;;22.40;12.60;;;;;;;;;;5026641;28;20028;-61
2022/04/19 05:43:15;;;;;;;21.63;12.77;;;;;;;;;;5027663;28;20025;-59
2022/04/19 05:45:42;;;;;;;23.55;13.55;;;;;;;;;;5021460;28;20025;-60
2022/04/19 05:48:08;;;;;;;20.38;12.90;;;;;;;;;;5022700;28;20885;-60
2022/04/19 05:50:34;;;;;;;22.27;12.60;;;;;;;;;;5025542;28;20389;-60
2022/04/19 05:53:00;;;;;;;19.25;13.10;;;;;;;;;;5027222;28;20025;-59
2022/04/19 05:55:26;;;;;;;17.80;12.73;;;;;;;;;;5023336;28;20032;-61
2022/04/19 05:57:53;;;;;;;21.75;13.50;;;;;;;;;;5026330;28;20060;-59
2022/04/19 06:00:19;;;;;;;23.38;13.32;;;;;;;;;;5023157;28;20512;-62
2022/04/19 06:05:30;;;;;;;21.67;14.05;;;;;;;;;;5023481;28;20091;-62
2022/04/19 06:07:56;;;;;;;25.15;13.70;;;;;;;;;;5025175;28;20124;-59
2022/04/19 06:10:22;;;;;;;22.58;14.00;;;;;;;;;;5022864;28;20025;-61
2022/04/19 06:12:48;;;;;;;23.85;13.65;;;;;;;;;;5023620;28;20217;-60
2022/04/19 06:15:14;;;;;;;22.27;13.63;;;;;;;;;;5023022;28;20077;-62
2022/04/19 06:17:41;;;;;;;23.63;12.93;;;;;;;;;;5022181;28;20457;-62
2022/04/19 06:20:07;;;;;;;21.52;13.45;;;;;;;;;;5026286;28;20024;-62
2022/04/19 06:22:33;;;;;;;20.90;12.55;;;;;;;;;;5022522;28;20029;-59
2022/04/19 06:25:01;;;;;;;21.95;12.93;;;;;;;;;;5022254;28;20631;-59
2022/04/19 06:27:27;;;;;;;20.35;12.65;;;;;;;;;;5023655;28;20048;-61
2022/04/19 06:29:53;;;;;;;18.15;11.82;;;;;;;;;;5022005;28;20341;-62
2022/04/19 06:32:19;;;;;;;21.92;11.65;;;;;;;;;;5022728;28;20033;-61
2022/04/19 06:34:45;;;;;;;23.48;13.50;;;;;;;;;;5027980;28;20485;-61
2022/04/19 06:37:11;;;;;;;22.65;11.98;;;;;;;;;;5019535;28;20072;-61
2022/04/19 06:39:38;;;;;;;20.15;12.00;;;;;;;;;;5022401;28;20018;-62
2022/04/19 06:42:04;;;;;;;17.83;11.40;;;;;;;;;;5021741;28;20052;-60
2022/04/19 06:44:30;;;;;;;19.23;11.48;;;;;;;;;;5026939;28;20026;-59
2022/04/19 06:46:56;;;;;;;22.20;12.38;;;;;;;;;;5022683;28;20115;-59
2022/04/19 06:49:21;;;;;;;19.48;11.68;;;;;;;;;;5025092;28;20041;-60
2022/04/19 06:51:49;;;;;;;19.75;11.80;;;;;;;;;;5021756;28;20660;-59
2022/04/19 06:54:15;;;;;;;20.45;12.15;;;;;;;;;;5021852;28;20029;-60
2022/04/19 06:56:41;;;;;;;20.42;12.02;;;;;;;;;;5025512;28;20021;-58
2022/04/19 06:59:08;;;;;;;22.08;11.13;;;;;;;;;;5023729;28;20083;-60
2022/04/19 07:01:35;;;;;;;17.33;11.15;;;;;;;;;;5021896;28;20048;-60
2022/04/19 07:04:01;;;;;;;21.60;11.98;;;;;;;;;;5021192;28;20452;-58
2022/04/19 07:06:27;;;;;;;17.95;11.13;;;;;;;;;;5028295;28;20029;-60
2022/04/19 07:08:53;;;;;;;20.70;11.80;;;;;;;;;;5022432;28;20099;-59
2022/04/19 07:11:19;;;;;;;20.88;10.68;;;;;;;;;;5021590;28;20436;-60
2022/04/19 07:13:45;;;;;;;17.23;10.13;;;;;;;;;;5023386;28;20017;-59
2022/04/19 07:16:11;;;;;;;22.02;11.10;;;;;;;;;;5021991;28;20141;-62
2022/04/19 07:18:37;;;;;;;17.63;9.95;;;;;;;;;;5023774;28;20740;-61
2022/04/19 07:26:40;;;;;;;16.65;10.05;;;;;;;;;;5022721;28;20129;-59
2022/04/19 07:29:07;;;;;;;16.73;9.93;;;;;;;;;;5026802;28;20274;-62
2022/04/19 07:31:33;;;;;;;16.48;9.52;;;;;;;;;;5021546;28;20083;-59
2022/04/19 07:33:59;;;;;;;13.70;9.10;;;;;;;;;;5027275;28;20022;-60
2022/04/19 07:36:25;;;;;;;15.02;9.45;;;;;;;;;;5021336;28;20022;-59
2022/04/19 07:38:52;;;;;;;15.90;9.57;;;;;;;;;;5026024;28;20068;-59
2022/04/19 07:41:18;;;;;;;13.68;8.40;;;;;;;;;;5023257;28;20447;-58
2022/04/19 07:43:46;;;;;;;15.13;9.57;;;;;;;;;;5017468;28;20650;-61
2022/04/19 07:46:15;;;;;;;12.43;8.75;;;;;;;;;;5020669;28;20072;-60
2022/04/19 07:48:41;;;;;;;14.57;9.40;;;;;;;;;;5024432;28;20090;-59
2022/04/19 07:51:07;;;;;;;13.85;8.90;;;;;;;;;;5021707;28;20034;-61
2022/04/19 07:53:33;;;;;;;13.93;8.52;;;;;;;;;;5025540;28;20080;-61
2022/04/19 07:55:59;;;;;;;17.25;8.50;;;;;;;;;;5018467;28;20026;-61
2022/04/19 07:58:25;;;;;;;16.15;8.98;;;;;;;;;;5025741;28;20022;-60
2022/04/19 08:00:51;;;;;;;15.20;9.05;;;;;;;;;;5019708;28;20032;-60
2022/04/19 08:03:17;;;;;;;13.20;8.82;;;;;;;;;;5024973;28;20368;-61
2022/04/19 08:05:43;;;;;;;17.35;8.90;;;;;;;;;;5020306;28;20442;-60
2022/04/19 08:08:09;;;;;;;16.58;8.70;;;;;;;;;;5024938;28;20029;-60
2022/04/19 08:10:35;;;;;;;14.43;8.63;;;;;;;;;;5019758;28;20565;-58
2022/04/19 08:13:01;;;;;;;13.80;9.15;;;;;;;;;;5023274;28;20037;-61
2022/04/19 08:15:27;;;;;;;16.05;8.82;;;;;;;;;;5019779;28;20032;-62
2022/04/19 08:17:53;;;;;;;16.20;9.38;;;;;;;;;;5021445;28;20040;-61
2022/04/19 08:20:19;;;;;;;16.15;9.43;;;;;;;;;;5019591;28;20568;-59
2022/04/19 08:22:45;;;;;;;16.52;9.80;;;;;;;;;;5021077;28;20025;-61
2022/04/19 08:25:11;;;;;;;13.68;9.40;;;;;;;;;;5021284;28;20030;-60
2022/04/19 08:27:42;;;;;;;15.52;8.60;;;;;;;;;;5036474;28;20524;-62
2022/04/19 08:30:08;;;;;;;14.10;9.75;;;;;;;;;;5027137;28;20637;-58
2022/04/19 08:32:34;;;;;;;14.80;9.45;;;;;;;;;;5023892;28;20025;-59
2022/04/19 08:35:00;;;;;;;16.48;9.40;;;;;;;;;;5020086;28;20032;-60
2022/04/19 08:37:30;;;;;;;13.80;9.00;;;;;;;;;;5020320;28;20044;-59
2022/04/19 08:39:56;;;;;;;15.23;9.23;;;;;;;;;;5021011;28;20087;-60
2022/04/19 08:42:22;;;;;;;17.08;8.80;;;;;;;;;;5038038;28;20560;-58
2022/04/19 08:44:48;;;;;;;15.77;8.63;;;;;;;;;;5024928;28;20022;-61
2022/04/19 08:47:15;;;;;;;14.73;8.50;;;;;;;;;;5024664;28;20061;-60
2022/04/19 08:49:42;;;;;;;13.40;8.63;;;;;;;;;;5020467;28;20083;-61
2022/04/19 08:52:11;;;;;;;14.25;8.48;;;;;;;;;;5023717;28;20041;-58
2022/04/19 08:57:31;;;;;;;14.25;8.30;;;;;;;;;;5030123;28;20134;-61
2022/04/19 08:59:57;;;;;;;19.77;8.52;;;;;;;;;;5024281;28;20032;-58
2022/04/19 09:02:24;;;;;;;12.95;8.23;;;;;;;;;;5024437;28;20075;-59
2022/04/19 09:04:52;;;;;;;9.88;7.00;;;;;;;;;;5026861;28;20048;-57
2022/04/19 09:07:18;;;;;;;12.57;7.20;;;;;;;;;;5029256;28;20112;-60
2022/04/19 09:09:58;;;;;;;11.18;6.95;;;;;;;;;;5025072;28;20032;-61
2022/04/19 09:12:24;;;;;;;12.02;6.55;;;;;;;;;;5022718;28;20156;-61
2022/04/19 09:15:00;;;;;;;11.75;6.85;;;;;;;;;;5025307;28;20401;-60
2022/04/19 09:17:30;;;;;;;9.82;6.93;;;;;;;;;;5023995;28;20452;-61
2022/04/19 09:20:08;;;;;;;10.60;6.65;;;;;;;;;;5024923;28;20428;-61
2022/04/19 09:22:34;;;;;;;9.80;6.65;;;;;;;;;;5025230;28;20040;-61
2022/04/19 09:25:13;;;;;;;14.55;6.75;;;;;;;;;;5015398;28;20041;-59
2022/04/19 09:27:39;;;;;;;10.52;6.70;;;;;;;;;;5018975;28;20029;-61
2022/04/19 09:30:21;;;;;;;8.50;6.07;;;;;;;;;;5023907;28;20044;-59
2022/04/19 09:33:02;;;;;;;9.77;6.03;;;;;;;;;;5024294;28;20124;-59
2022/04/19 09:35:32;;;;;;;8.80;6.00;;;;;;;;;;5023575;28;20036;-61
2022/04/19 09:37:58;;;;;;;12.40;5.95;;;;;;;;;;5034760;28;20036;-61
2022/04/19 09:40:31;;;;;;;10.00;6.03;;;;;;;;;;5029510;28;20456;-61
2022/04/19 09:42:57;;;;;;;12.52;5.95;;;;;;;;;;5027411;28;20457;-60
2022/04/19 09:45:24;;;;;;;9.32;5.50;;;;;;;;;;5024891;28;20112;-60
2022/04/19 09:47:51;;;;;;;9.45;5.47;;;;;;;;;;5022222;28;20045;-58
2022/04/19 09:50:17;;;;;;;9.15;6.40;;;;;;;;;;5026877;28;20501;-59
2022/04/19 09:52:50;;;;;;;8.63;5.88;;;;;;;;;;5026255;28;20020;-60
2022/04/19 09:55:16;;;;;;;8.80;5.00;;;;;;;;;;5021519;28;20013;-59
2022/04/19 09:57:48;;;;;;;7.18;5.55;;;;;;;;;;5029608;28;20117;-58
2022/04/19 10:00:17;;;;;;;8.50;5.60;;;;;;;;;;5026012;28;20446;-60
2022/04/19 10:08:20;;;;;;;9.70;5.32;;;;;;;;;;5028402;28;20114;-61
2022/04/19 10:10:48;;;;;;;8.60;5.22;;;;;;;;;;5021272;28;20083;-61
2022/04/19 10:13:16;;;;;;;8.95;4.38;;;;;;;;;;5025923;28;20139;-59
2022/04/19 10:15:42;;;;;;;9.30;4.82;;;;;;;;;;5022978;28;20024;-62
2022/04/19 10:18:08;;;;;;;5.85;4.03;;;;;;;;;;5023008;28;20061;-60
2022/04/19 10:20:40;;;;;;;6.53;4.07;;;;;;;;;;5023172;28;20033;-60
2022/04/19 10:23:10;;;;;;;6.45;4.30;;;;;;;;;;5024557;28;20369;-60
2022/04/19 10:25:44;;;;;;;6.57;3.95;;;;;;;;;;5020123;28;20496;-61
2022/04/19 10:28:14;;;;;;;8.63;4.47;;;;;;;;;;5026268;28;20408;-58
2022/04/19 10:30:47;;;;;;;7.13;4.88;;;;;;;;;;5023091;28;20230;-59
2022/04/19 10:33:45;;;;;;;7.82;4.80;;;;;;;;;;5020790;28;20033;-61
2022/04/19 10:36:14;;;;;;;7.63;4.97;;;;;;;;;;5028088;28;20461;-61
2022/04/19 10:38:41;;;;;;;7.70;4.72;;;;;;;;;;5024839;28;20136;-61
2022/04/19 10:41:07;;;;;;;7.60;4.75;;;;;;;;;;5025530;28;20240;-60
2022/04/19 10:43:33;;;;;;;6.70;3.88;;;;;;;;;;5021715;28;20073;-60
2022/04/19 10:46:18;;;;;;;7.18;4.57;;;;;;;;;;5015438;28;20061;-60
2022/04/19 10:49:03;;;;;;;7.35;4.75;;;;;;;;;;5025488;28;20060;-61
2022/04/19 10:51:30;;;;;;;10.35;5.63;;;;;;;;;;5016440;28;20108;-61
2022/04/19 10:53:56;;;;;;;7.55;5.50;;;;;;;;;;5027057;28;20021;-58
2022/04/19 10:56:22;;;;;;;9.70;5.63;;;;;;;;;;5019036;28;20029;-60
2022/04/19 10:58:48;;;;;;;8.55;5.15;;;;;;;;;;5028397;28;20049;-60
2022/04/19 11:01:30;;;;;;;7.13;5.05;;;;;;;;;;5015627;28;20597;-61
2022/04/19 11:03:56;;;;;;;7.97;4.32;;;;;;;;;;5026093;28;20029;-60
2022/04/19 11:06:40;;;;;;;10.07;5.38;;;;;;;;;;5021695;28;20033;-58
2022/04/19 11:09:07;;;;;;;9.07;5.43;;;;;;;;;;5019655;28;20068;-59
2022/04/19 11:11:53;;;;;;;11.48;5.07;;;;;;;;;;5018649;28;20504;-60
2022/04/19 11:14:19;;;;;;;9.38;5.40;;;;;;;;;;5037078;28;20374;-61
2022/04/19 11:16:46;;;;;;;11.55;5.32;;;;;;;;;;5021837;28;20124;-60
2022/04/19 11:19:14;;;;;;;7.28;5.13;;;;;;;;;;5023143;28;20026;-59
2022/04/19 11:21:52;;;;;;;7.70;4.95;;;;;;;;;;5021777;28;20025;-59
2022/04/19 11:24:37;;;;;;;7.40;4.90;;;;;;;;;;5021598;28;20033;-59
2022/04/19 11:27:03;;;;;;;7.63;4.40;;;;;;;;;;5009442;28;20055;-59
2022/04/19 11:29:46;;;;;;;11.13;5.18;;;;;;;;;;5021730;28;20033;-59
2022/04/19 11:32:12;;;;;;;8.65;4.90;;;;;;;;;;5021675;28;20025;-61
2022/04/19 11:34:38;;;;;;;7.97;5.18;;;;;;;;;;5034608;28;20044;-60
2022/04/19 11:37:05;;;;;;;7.63;5.00;;;;;;;;;;5023947;28;20057;-61
2022/04/19 11:47:58;;;;;;;8.38;4.70;;;;;;;;;;5020545;28;20052;-61
2022/04/19 11:50:29;;;;;;;8.73;4.57;;;;;;;;;;5020654;28;20053;-59
2022/04/19 11:52:55;;;;;;;7.70;3.97;;;;;;;;;;5025885;28;20734;-61
2022/04/19 11:55:25;;;;;;;7.28;3.85;;;;;;;;;;5019580;28;20040;-61
2022/04/19 11:58:06;;;;;;;6.43;3.83;;;;;;;;;;5021834;28;20503;-59
2022/04/19 12:00:32;;;;;;;7.70;4.15;;;;;;;;;;5022812;28;20453;-60
2022/04/19 12:02:59;;;;;;;6.78;4.10;;;;;;;;;;5026698;28;20537;-61
2022/04/19 12:05:25;;;;;;;7.18;4.78;;;;;;;;;;5015737;28;20028;-60
2022/04/19 12:07:52;;;;;;;8.02;4.10;;;;;;;;;;5015573;28;20111;-60
2022/04/19 12:10:19;;;;;;;7.80;4.07;;;;;;;;;;5019518;28;20033;-61
2022/04/19 12:12:46;;;;;;;7.80;4.53;;;;;;;;;;5021385;28;20025;-61
2022/04/19 12:15:12;;;;;;;8.10;4.53;;;;;;;;;;5022098;28;20051;-59
2022/04/19 12:17:47;;;;;;;6.90;4.40;;;;;;;;;;5024473;28;20025;-61
2022/04/19 12:20:14;;;;;;;7.60;4.47;;;;;;;;;;5027475;28;20030;-60
2022/04/19 12:22:47;;;;;;;7.72;3.90;;;;;;;;;;5032685;28;20128;-60
2022/04/19 12:25:22;;;;;;;9.98;4.47;;;;;;;;;;5016755;28;20042;-60
2022/04/19 12:27:51;;;;;;;7.78;4.07;;;;;;;;;;5023868;28;20029;-60
2022/04/19 12:30:17;;;;;;;8.60;4.00;;;;;;;;;;5026135;28;20076;-60
2022/04/19 12:32:57;;;;;;;5.72;3.78;;;;;;;;;;5026048;28;20056;-60
2022/04/19 12:35:25;;;;;;;8.57;4.70;;;;;;;;;;5025055;28;20022;-58
2022/04/19 12:38:05;;;;;;;7.47;4.55;;;;;;;;;;5027569;28;20030;-61
2022/04/19 12:40:31;;;;;;;9.43;4.60;;;;;;;;;;5026120;28;20473;-59
2022/04/19 12:42:57;;;;;;;6.75;4.13;;;;;;;;;;5026956;28;20033;-60
2022/04/19 12:45:22;;;;;;;8.38;4.28;;;;;;;;;;5034191;28;20179;-60
2022/04/19 12:47:49;;;;;;;8.30;4.30;;;;;;;;;;5019787;28;20058;-60
2022/04/19 12:50:16;;;;;;;7.45;4.20;;;;;;;;;;5024505;28;20029;-60
2022/04/19 12:52:42;;;;;;;7.72;4.40;;;;;;;;;;5030696;28;20028;-61
2022/04/19 12:55:09;;;;;;;6.75;4.05;;;;;;;;;;5028300;28;20037;-61
2022/04/19 12:57:38;;;;;;;6.50;3.90;;;;;;;;;;5025949;28;20041;-61
2022/04/19 13:00:04;;;;;;;7.57;4.00;;;;;;;;;;5024993;28;20461;-60
2022/04/19 13:02:31;;;;;;;6.22;4.80;;;;;;;;;;5025971;28;20037;-60
2022/04/19 13:04:57;;;;;;;6.57;4.10;;;;;;;;;;5028852;28;20069;-60
2022/04/19 13:12:59;;;;;;;6.93;4.68;;;;;;;;;;5018784;28;20125;-60
2022/04/19 13:15:25;;;;;;;7.30;4.38;;;;;;;;;;5022787;28;20132;-59
2022/04/19 13:17:51;;;;;;;7.22;4.43;;;;;;;;;;5023900;28;20087;-58
2022/04/19 13:20:17;;;;;;;6.97;4.32;;;;;;;;;;5026758;28;20037;-59
2022/04/19 13:22:43;;;;;;;8.82;3.63;;;;;;;;;;5021240;28;20026;-58
2022/04/19 13:25:09;;;;;;;6.78;3.50;;;;;;;;;;5020297;28;20064;-61
2022/04/19 13:27:36;;;;;;;5.75;3.58;;;;;;;;;;5027096;28;20029;-60
2022/04/19 13:30:03;;;;;;;4.05;2.92;;;;;;;;;;5023923;28;20091;-60
2022/04/19 13:32:30;;;;;;;5.10;2.92;;;;;;;;;;5034682;28;20033;-60
2022/04/19 13:34:56;;;;;;;4.68;2.85;;;;;;;;;;5025140;28;20115;-61
2022/04/19 13:40:07;;;;;;;3.63;2.30;;;;;;;;;;5022961;28;20300;-60
2022/04/19 13:42:33;;;;;;;4.20;2.22;;;;;;;;;;5027958;28;20551;-59
2022/04/19 13:44:59;;;;;;;4.90;3.00;;;;;;;;;;5028970;28;20421;-61
2022/04/19 13:47:26;;;;;;;5.32;2.95;;;;;;;;;;5023272;28;20033;-61
2022/04/19 13:49:52;;;;;;;6.40;3.45;;;;;;;;;;5028138;28;20277;-61
2022/04/19 13:52:18;;;;;;;6.85;3.05;;;;;;;;;;5026682;28;20435;-61
2022/04/19 13:54:43;;;;;;;5.10;2.83;;;;;;;;;;5023733;28;20024;-61
2022/04/19 13:57:09;;;;;;;4.28;2.65;;;;;;;;;;5024373;28;20027;-59
2022/04/19 13:59:35;;;;;;;5.07;3.33;;;;;;;;;;5023676;28;20025;-57
2022/04/19 14:02:01;;;;;;;4.82;3.05;;;;;;;;;;5023329;28;20072;-57
2022/04/19 14:04:27;;;;;;;4.07;2.90;;;;;;;;;;5029823;28;20045;-58
2022/04/19 14:06:53;;;;;;;6.32;2.92;;;;;;;;;;5024187;28;20025;-58
2022/04/19 14:09:20;;;;;;;5.07;2.38;;;;;;;;;;5023751;28;20534;-57
2022/04/19 14:11:46;;;;;;;4.00;2.72;;;;;;;;;;5020150;28;20033;-57
2022/04/19 14:14:12;;;;;;;8.02;2.70;;;;;;;;;;5023789;28;20241;-57
2022/04/19 14:16:38;;;;;;;4.00;2.47;;;;;;;;;;5023583;28;20030;-58
2022/04/19 14:19:05;;;;;;;3.75;2.70;;;;;;;;;;5026175;28;20039;-58
2022/04/19 14:21:31;;;;;;;4.40;2.50;;;;;;;;;;5023186;28;20041;-57
2022/04/19 14:23:57;;;;;;;7.13;3.10;;;;;;;;;;5022901;28;20022;-57
2022/04/19 14:26:23;;;;;;;8.23;2.88;;;;;;;;;;5023635;28;20064;-57
2022/04/19 14:34:19;;;;;;;5.22;3.10;;;;;;;;;;5018851;28;20136;-57
2022/04/19 14:36:45;;;;;;;8.07;2.63;;;;;;;;;;5026360;28;20644;-58
2022/04/19 14:39:11;;;;;;;5.63;2.78;;;;;;;;;;5022801;28;20640;-57
2022/04/19 14:41:38;;;;;;;3.08;2.72;;;;;;;;;;5026077;28;20025;-58
2022/04/19 14:44:05;;;;;;;5.57;2.88;;;;;;;;;;5022790;28;20025;-58
2022/04/19 14:46:31;;;;;;;4.85;2.53;;;;;;;;;;5023637;28;20111;-57
2022/04/19 14:48:57;;;;;;;5.32;2.47;;;;;;;;;;5024358;28;20040;-62
2022/04/19 14:54:08;;;;;;;5.22;2.92;;;;;;;;;;5023037;28;20139;-60
2022/04/19 14:56:34;;;;;;;6.15;2.70;;;;;;;;;;5023428;28;20182;-60
2022/04/19 14:59:00;;;;;;;3.20;2.10;;;;;;;;;;5016687;28;20032;-59
2022/04/19 15:01:27;;;;;;;3.40;2.63;;;;;;;;;;5022682;28;20032;-61
2022/04/19 15:03:52;;;;;;;5.15;2.40;;;;;;;;;;5029293;28;20033;-61
2022/04/19 15:06:18;;;;;;;5.53;3.00;;;;;;;;;;5022050;28;20037;-60
2022/04/19 15:08:44;;;;;;;6.03;2.58;;;;;;;;;;5022858;28;20014;-58
2022/04/19 15:11:10;;;;;;;8.60;2.83;;;;;;;;;;4998783;28;20030;-60
2022/04/19 15:13:36;;;;;;;5.10;2.50;;;;;;;;;;5021155;28;20044;-61
2022/04/19 15:16:03;;;;;;;8.77;2.50;;;;;;;;;;5037426;28;20120;-59
2022/04/19 15:18:29;;;;;;;4.20;2.72;;;;;;;;;;5023112;28;20017;-59
2022/04/19 15:20:56;;;;;;;4.97;2.70;;;;;;;;;;5024406;28;20493;-62
2022/04/19 15:23:22;;;;;;;4.90;2.38;;;;;;;;;;5033120;28;20025;-58
2022/04/19 15:25:48;;;;;;;5.78;2.80;;;;;;;;;;5018464;28;20128;-61